Time;durP1;ratioP1;P1;durP2;ratioP2;P2;SDS_P1;SDS_P2;PMS_P1;PMS_P2;Temp;Humidity;BMP_temperature;BMP_pressure;BME280_temperature;BME280_humidity;BME280_pressure;Samples;Min_cycle;Max_cycle;Signal;HPM_P1;HPM_P2
2023/09/05 00:01:53;;;;;;;6.57;2.95;;;;;;;14.20;88.76;102390.47;4870025;28;20040;-84
2023/09/05 00:04:19;;;;;;;;;;;;;;;14.16;88.81;102400.16;4898106;28;20030;-84
2023/09/05 00:06:48;;;;;;;3.05;2.30;;;;;;;14.08;89.09;102392.50;4883460;28;20383;-86
2023/09/05 00:09:19;;;;;;;4.70;2.90;;;;;;;14.03;88.63;102397.84;4895178;28;20043;-83
2023/09/05 00:16:16;;;;;;;3.58;2.80;;;;;;;13.90;89.71;102383.72;4901364;28;20047;-84
2023/09/05 00:19:17;;;;;;;7.70;2.78;;;;;;;13.88;88.87;102382.31;4897132;29;20060;-85
2023/09/05 00:26:38;;;;;;;3.75;3.17;;;;;;;13.69;88.61;102375.63;4885203;28;20041;-85
2023/09/05 00:29:20;;;;;;;5.78;3.80;;;;;;;13.68;89.27;102382.88;4928642;28;20060;-72
2023/09/05 00:32:13;;;;;;;5.13;3.33;;;;;;;13.67;89.65;102370.47;4890854;28;20082;-72
2023/09/05 00:34:47;;;;;;;5.10;3.58;;;;;;;13.63;89.27;102369.38;4904590;28;20515;-73
2023/09/05 00:37:25;;;;;;;5.05;3.15;;;;;;;13.66;89.40;102368.88;4902249;28;20555;-73
2023/09/05 00:39:55;;;;;;;3.83;3.45;;;;;;;13.65;89.32;102368.06;4887718;28;20043;-73
2023/09/05 00:42:25;;;;;;;4.15;3.22;;;;;;;13.65;89.74;102362.66;4889823;28;20047;-72
2023/09/05 00:44:51;;;;;;;4.72;3.53;;;;;;;13.66;89.99;102366.16;4915711;28;20030;-72
2023/09/05 00:47:22;;;;;;;6.15;3.60;;;;;;;13.68;89.82;102365.91;4905892;28;20044;-72
2023/09/05 00:49:51;;;;;;;5.53;3.25;;;;;;;13.65;89.41;102359.16;4907766;28;20113;-73
2023/09/05 00:52:19;;;;;;;4.30;3.45;;;;;;;13.65;89.81;102359.16;4884644;28;20051;-72
2023/09/05 00:54:45;;;;;;;4.95;3.80;;;;;;;13.67;89.65;102354.34;4904474;28;20630;-74
2023/09/05 00:57:14;;;;;;;6.45;4.10;;;;;;;13.64;89.60;102357.53;4936142;28;20044;-73
2023/09/05 00:59:41;;;;;;;5.30;3.55;;;;;;;13.65;89.01;102353.78;4887493;28;20031;-73
2023/09/05 01:02:07;;;;;;;3.70;3.20;;;;;;;13.65;89.16;102351.09;4910313;28;20072;-73
2023/09/05 01:04:33;;;;;;;4.28;3.70;;;;;;;13.65;89.46;102351.09;4874787;28;20078;-72
2023/09/05 01:07:08;;;;;;;4.20;3.80;;;;;;;13.65;89.37;102346.50;4900908;28;20094;-72
2023/09/05 01:09:51;;;;;;;4.40;3.90;;;;;;;13.66;89.66;102342.75;4902463;28;20056;-72
2023/09/05 01:12:17;;;;;;;4.70;4.00;;;;;;;13.66;90.26;102348.13;4898296;28;20059;-74
2023/09/05 01:14:42;;;;;;;5.63;3.75;;;;;;;13.65;89.95;102338.44;4872207;28;20569;-71
2023/09/05 01:17:09;;;;;;;5.72;4.43;;;;;;;13.65;89.76;102335.75;4984412;28;20222;-74
2023/09/05 01:19:39;;;;;;;5.90;3.70;;;;;;;13.63;90.04;102337.06;4898562;28;20671;-72
2023/09/05 01:22:17;;;;;;;6.10;4.20;;;;;;;13.60;90.55;102326.78;4894511;28;20032;-72
2023/09/05 01:24:47;;;;;;;7.18;3.50;;;;;;;13.57;90.34;102330.81;4899937;28;20044;-73
2023/09/05 01:27:17;;;;;;;3.90;3.40;;;;;;;13.55;90.10;102340.22;4923774;28;20179;-72
2023/09/05 01:29:45;;;;;;;;;;;;;;;13.54;90.49;102333.97;4878282;28;20036;-73
2023/09/05 01:32:10;;;;;;;5.82;3.63;;;;;;;13.49;90.31;102341.22;4889115;28;19927;-72
2023/09/05 01:34:37;;;;;;;6.65;4.45;;;;;;;13.46;90.87;102333.63;4895346;28;20129;-73
2023/09/05 01:37:05;;;;;;;7.15;3.97;;;;;;;13.41;91.22;102328.97;4869831;28;20028;-71
2023/09/05 01:39:31;;;;;;;4.47;3.83;;;;;;;13.38;90.77;102327.59;4901779;28;20094;-71
2023/09/05 01:41:58;;;;;;;4.63;4.15;;;;;;;13.34;91.10;102321.13;4918934;28;20044;-72
2023/09/05 01:44:25;;;;;;;7.90;3.53;;;;;;;13.31;91.28;102323.47;4921665;28;20632;-73
2023/09/05 01:46:53;;;;;;;5.35;3.72;;;;;;;13.29;90.65;102321.03;4899870;28;20044;-71
2023/09/05 01:49:19;;;;;;;7.22;3.40;;;;;;;13.26;91.09;102316.13;4881116;28;20223;-71
2023/09/05 01:51:45;;;;;;;4.40;3.10;;;;;;;13.25;90.53;102314.50;4900655;28;20037;-72
2023/09/05 01:54:10;;;;;;;5.72;3.47;;;;;;;13.25;90.32;102305.63;4883705;28;20044;-73
2023/09/05 01:56:36;;;;;;;7.03;3.90;;;;;;;13.23;90.56;102308.56;4902368;28;20202;-71
2023/09/05 01:59:02;;;;;;;6.25;4.28;;;;;;;13.24;90.63;102310.19;4918565;28;20031;-73
2023/09/05 02:01:29;;;;;;;5.35;3.88;;;;;;;13.23;90.75;102316.66;4915430;28;20032;-72
2023/09/05 02:03:55;;;;;;;5.75;4.03;;;;;;;13.22;90.91;102309.66;4884479;28;20043;-72
2023/09/05 02:06:20;;;;;;;7.75;4.20;;;;;;;13.20;91.30;102310.91;4886174;28;20036;-73
2023/09/05 02:08:46;;;;;;;5.45;4.18;;;;;;;13.18;91.41;102311.16;4869909;28;20032;-72
2023/09/05 02:11:12;;;;;;;;;;;;;;;13.18;91.80;102315.72;4898188;28;20095;-73
2023/09/05 02:13:38;;;;;;;4.95;3.78;;;;;;;13.13;91.47;102327.22;4902405;28;19919;-72
2023/09/05 02:16:03;;;;;;;5.00;4.10;;;;;;;13.12;91.18;102317.53;4900265;28;20405;-72
2023/09/05 02:18:29;;;;;;;8.35;4.40;;;;;;;13.09;91.56;102312.66;4905918;28;20046;-72
2023/09/05 02:21:00;;;;;;;7.95;4.30;;;;;;;13.06;91.62;102311.25;4907451;28;20739;-73
2023/09/05 02:23:26;;;;;;;8.85;4.07;;;;;;;13.05;91.83;102312.34;4918252;28;20614;-73
2023/09/05 02:26:00;;;;;;;4.85;3.70;;;;;;;13.04;91.64;102308.03;4896611;28;20044;-72
2023/09/05 02:28:27;;;;;;;4.75;3.92;;;;;;;13.02;91.76;102309.34;4932525;28;20143;-72
2023/09/05 02:30:53;;;;;;;5.47;4.40;;;;;;;13.00;91.81;102301.50;4925422;28;20579;-72
2023/09/05 02:33:20;;;;;;;9.07;4.93;;;;;;;12.99;91.92;102309.81;4947615;28;20032;-71
2023/09/05 02:35:48;;;;;;;6.88;4.10;;;;;;;12.95;92.15;102304.13;4901119;28;20040;-72
2023/09/05 02:38:14;;;;;;;5.97;5.07;;;;;;;12.95;91.73;102303.31;4899099;28;20237;-73
2023/09/05 02:40:48;;;;;;;5.45;4.13;;;;;;;12.93;91.61;102311.63;4883908;28;20048;-73
2023/09/05 02:43:14;;;;;;;6.22;4.18;;;;;;;12.91;91.63;102302.19;4896090;28;20106;-72
2023/09/05 02:45:50;;;;;;;4.75;4.22;;;;;;;12.88;92.04;102302.69;4901625;28;20044;-72
2023/09/05 02:48:16;;;;;;;6.22;4.63;;;;;;;12.88;91.74;102305.38;4881686;28;20036;-72
2023/09/05 02:50:41;;;;;;;4.63;3.35;;;;;;;12.86;91.79;102300.22;4886927;28;20413;-72
2023/09/05 02:53:07;;;;;;;7.80;3.80;;;;;;;12.87;91.23;102301.03;4900232;28;20791;-72
2023/09/05 02:55:34;;;;;;;5.28;3.47;;;;;;;12.86;90.90;102300.22;4901616;28;20051;-72
2023/09/05 02:58:00;;;;;;;4.40;3.78;;;;;;;12.83;91.08;102298.84;4892778;28;20041;-72
2023/09/05 03:00:26;;;;;;;4.93;4.13;;;;;;;12.80;91.75;102296.66;4900692;28;20047;-73
2023/09/05 03:02:53;;;;;;;4.65;3.72;;;;;;;12.77;91.76;102291.75;4904068;28;20107;-72
2023/09/05 03:05:19;;;;;;;7.75;4.15;;;;;;;12.76;91.84;102290.16;4886643;28;20032;-72
2023/09/05 03:07:47;;;;;;;7.78;4.03;;;;;;;12.74;91.67;102286.91;4902931;28;20051;-72
2023/09/05 03:10:14;;;;;;;4.60;3.58;;;;;;;12.73;91.88;102287.13;4887544;28;20689;-72
2023/09/05 03:12:39;;;;;;;3.97;3.15;;;;;;;12.70;91.52;102291.13;4902571;28;20033;-73
2023/09/05 03:15:07;;;;;;;4.63;3.45;;;;;;;12.69;91.43;102289.50;4885854;28;20048;-72
2023/09/05 03:17:32;;;;;;;4.47;3.10;;;;;;;12.70;90.88;102284.94;4887760;28;20119;-73
2023/09/05 03:19:58;;;;;;;5.38;3.25;;;;;;;12.69;90.67;102280.63;4901168;28;20139;-72
2023/09/05 03:22:23;;;;;;;4.68;3.90;;;;;;;12.66;90.90;102287.28;4900451;28;20043;-71
2023/09/05 03:24:49;;;;;;;6.47;3.15;;;;;;;12.66;91.16;102281.09;4902357;28;20040;-73
2023/09/05 03:27:15;;;;;;;5.03;3.80;;;;;;;12.66;91.27;102284.59;4902640;28;20048;-71
2023/09/05 03:29:40;;;;;;;;;;;;;;;12.67;91.63;102278.19;4901314;28;20047;-72
2023/09/05 03:32:06;;;;;;;4.95;4.15;;;;;;;12.66;91.69;102273.03;4885497;28;19945;-71
2023/09/05 03:34:34;;;;;;;4.80;3.40;;;;;;;12.66;91.83;102273.03;4885958;28;20036;-73
2023/09/05 03:37:00;;;;;;;5.32;3.67;;;;;;;12.66;91.33;102271.16;4901860;28;20062;-72
2023/09/05 03:39:25;;;;;;;4.90;3.90;;;;;;;12.66;91.98;102273.84;4914279;28;20068;-73
2023/09/05 03:41:51;;;;;;;4.13;3.22;;;;;;;12.65;92.40;102271.41;4906937;28;20044;-73
2023/09/05 03:44:16;;;;;;;5.57;4.47;;;;;;;12.65;93.14;102269.53;4898099;28;20098;-73
2023/09/05 03:46:42;;;;;;;;;;;;;;;12.65;93.81;102272.22;4903124;28;20931;-73
2023/09/05 03:49:08;;;;;;;7.57;4.68;;;;;;;12.62;94.20;102278.09;4884998;28;19926;-72
2023/09/05 03:51:33;;;;;;;6.13;4.07;;;;;;;12.60;94.03;102268.63;4904629;28;20122;-72
2023/09/05 03:53:59;;;;;;;5.22;3.85;;;;;;;12.60;93.31;102274.84;4903762;28;20040;-73
2023/09/05 03:56:25;;;;;;;;;;;;;;;12.62;92.82;102263.84;4892236;28;20037;-73
2023/09/05 03:58:51;;;;;;;3.80;3.03;;;;;;;12.59;92.21;102262.44;4902206;28;19915;-71
2023/09/05 04:01:17;;;;;;;4.55;3.35;;;;;;;12.62;92.02;102271.91;4890675;28;20040;-72
2023/09/05 04:03:45;;;;;;;6.13;3.80;;;;;;;12.62;92.45;102267.34;4890468;28;20617;-72
2023/09/05 04:06:11;;;;;;;5.07;4.22;;;;;;;12.61;92.21;102265.72;4907141;28;20051;-72
2023/09/05 04:08:37;;;;;;;;;;;;;;;12.60;92.91;102263.25;4889091;28;20087;-72
2023/09/05 04:11:03;;;;;;;7.20;3.78;;;;;;;12.56;92.83;102254.91;4926372;28;19966;-72
2023/09/05 04:13:29;;;;;;;;;;;;;;;12.56;92.86;102252.22;4929583;28;20036;-74
2023/09/05 04:15:55;;;;;;;5.32;4.00;;;;;;;12.52;92.74;102257.25;4890612;28;19965;-71
2023/09/05 04:18:21;;;;;;;;;;;;;;;12.52;92.86;102257.25;4949728;28;20047;-72
2023/09/05 04:20:46;;;;;;;4.38;3.78;;;;;;;12.49;93.03;102256.94;4902476;28;19923;-72
2023/09/05 04:23:13;;;;;;;6.15;4.25;;;;;;;12.48;93.00;102249.94;4921745;28;20086;-73
2023/09/05 04:25:40;;;;;;;5.95;4.13;;;;;;;12.48;92.64;102247.25;4896129;28;20040;-73
2023/09/05 04:28:07;;;;;;;6.75;4.55;;;;;;;12.48;93.07;102252.63;4872478;28;20071;-73
2023/09/05 04:30:34;;;;;;;6.18;3.92;;;;;;;12.48;93.31;102249.94;4909695;28;20428;-70
2023/09/05 04:33:02;;;;;;;5.50;4.25;;;;;;;12.49;93.13;102256.94;4880615;28;20071;-71
2023/09/05 04:35:28;;;;;;;5.30;4.43;;;;;;;12.48;93.31;102252.63;4909719;28;20082;-73
2023/09/05 04:37:54;;;;;;;7.55;3.60;;;;;;;12.48;93.25;102247.25;4896312;28;20044;-74
2023/09/05 04:40:19;;;;;;;8.43;5.18;;;;;;;12.46;93.25;102258.25;4914774;28;20044;-73
2023/09/05 04:42:45;;;;;;;6.55;4.47;;;;;;;12.46;93.50;102266.31;4887342;28;20378;-73
2023/09/05 04:45:10;;;;;;;4.65;4.10;;;;;;;12.45;93.63;102266.53;4913196;28;20041;-72
2023/09/05 04:47:38;;;;;;;4.32;3.65;;;;;;;12.44;93.36;102259.53;4906899;28;20413;-75
2023/09/05 04:50:04;;;;;;;7.22;3.80;;;;;;;12.45;92.81;102258.47;4903805;28;20175;-72
2023/09/05 04:52:30;;;;;;;7.45;4.30;;;;;;;12.41;92.67;102255.47;4893065;28;20527;-72
2023/09/05 04:54:58;;;;;;;6.10;3.92;;;;;;;12.42;92.33;102261.66;4916971;28;20505;-73
2023/09/05 04:57:24;;;;;;;6.38;4.82;;;;;;;12.43;92.24;102252.53;4904113;28;20032;-72
2023/09/05 04:59:56;;;;;;;6.68;4.20;;;;;;;12.44;92.56;102254.16;4904576;28;20036;-72
2023/09/05 05:02:34;;;;;;;6.38;5.45;;;;;;;12.46;93.24;102250.19;4901991;28;20032;-74
2023/09/05 05:05:00;;;;;;;5.60;4.60;;;;;;;12.47;93.38;102249.13;4905064;28;20044;-73
2023/09/05 05:07:25;;;;;;;7.47;6.57;;;;;;;12.53;94.27;102252.69;4889410;28;20090;-73
2023/09/05 05:09:51;;;;;;;7.25;4.93;;;;;;;12.52;94.36;102257.25;4906181;28;20059;-73
2023/09/05 05:12:17;;;;;;;5.88;5.15;;;;;;;12.54;94.55;102255.16;4906195;28;20313;-73
2023/09/05 05:14:43;;;;;;;6.07;5.47;;;;;;;12.57;94.74;102251.97;4884602;28;20508;-72
2023/09/05 05:17:08;;;;;;;7.22;4.53;;;;;;;12.61;95.45;102254.97;4917854;28;20034;-74
2023/09/05 05:19:35;;;;;;;5.97;4.90;;;;;;;12.61;95.24;102254.97;4907112;28;20034;-73
2023/09/05 05:22:00;;;;;;;7.22;5.07;;;;;;;12.65;95.21;102260.66;4873109;28;20074;-73
2023/09/05 05:24:26;;;;;;;6.55;5.22;;;;;;;12.67;95.22;102253.19;4970960;28;20040;-73
2023/09/05 05:26:52;;;;;;;7.88;5.88;;;;;;;12.70;95.44;102258.88;4902610;28;20102;-74
2023/09/05 05:29:17;;;;;;;9.05;6.82;;;;;;;12.72;95.74;102250.56;4900387;28;20032;-73
2023/09/05 05:31:43;;;;;;;6.82;5.35;;;;;;;12.73;96.30;102258.34;4920390;28;20103;-72
2023/09/05 05:34:09;;;;;;;;;;;;;;;12.79;96.18;102262.75;4887226;28;20551;-73
2023/09/05 05:36:35;;;;;;;7.28;4.95;;;;;;;12.79;96.28;102264.63;4902908;28;20285;-73
2023/09/05 05:39:02;;;;;;;7.25;5.82;;;;;;;12.83;95.98;102263.91;4884395;28;20056;-72
2023/09/05 05:41:28;;;;;;;5.95;5.35;;;;;;;12.89;96.37;102255.91;4906048;28;20497;-73
2023/09/05 05:43:55;;;;;;;6.32;5.47;;;;;;;12.96;96.32;102256.53;4889587;28;20054;-73
2023/09/05 05:46:21;;;;;;;7.95;5.38;;;;;;;13.02;96.51;102258.25;4900183;28;21012;-72
2023/09/05 05:48:48;;;;;;;5.90;5.10;;;;;;;13.07;96.64;102248.38;4904240;28;20159;-72
2023/09/05 05:51:15;;;;;;;8.50;5.57;;;;;;;13.16;96.50;102247.94;4892384;28;20040;-72
2023/09/05 05:53:42;;;;;;;5.93;5.18;;;;;;;13.23;96.62;102254.78;4908936;28;20064;-73
2023/09/05 05:56:09;;;;;;;10.43;6.05;;;;;;;13.34;96.97;102250.31;4903641;28;20063;-72
2023/09/05 05:58:35;;;;;;;6.25;5.35;;;;;;;13.44;97.00;102258.53;4886877;28;20055;-72
2023/09/05 06:01:01;;;;;;;7.38;6.13;;;;;;;13.62;97.14;102252.00;4905034;28;20513;-71
2023/09/05 06:03:26;;;;;;;;;;;;;;;13.77;96.74;102243.25;4904630;28;20043;-72
2023/09/05 06:05:56;;;;;;;7.22;6.10;;;;;;;13.87;96.79;102236.06;4887604;28;19923;-72
2023/09/05 06:08:22;;;;;;;7.60;5.80;;;;;;;14.02;96.27;102248.06;4903568;28;20121;-71
2023/09/05 06:10:47;;;;;;;7.22;6.20;;;;;;;14.18;95.62;102241.75;4901456;28;20044;-72
2023/09/05 06:13:13;;;;;;;8.48;6.00;;;;;;;14.32;95.02;102237.53;4900683;28;20035;-72
2023/09/05 06:15:39;;;;;;;6.30;5.25;;;;;;;14.44;93.64;102238.19;4904430;28;20050;-73
2023/09/05 06:18:05;;;;;;;;;;;;;;;14.64;93.41;102239.41;4888889;28;20790;-73
2023/09/05 06:20:34;;;;;;;6.75;5.25;;;;;;;14.71;92.62;102246.19;4907586;28;20420;-73
2023/09/05 06:23:01;;;;;;;7.95;4.95;;;;;;;14.84;91.70;102242.22;4887690;28;20044;-74
2023/09/05 06:25:27;;;;;;;6.32;5.30;;;;;;;14.96;90.80;102242.81;4915257;28;20024;-73
2023/09/05 06:27:53;;;;;;;6.65;5.70;;;;;;;15.06;90.08;102225.88;4889057;28;20460;-71
2023/09/05 06:30:18;;;;;;;8.20;5.38;;;;;;;15.15;89.31;102231.56;4905187;28;20496;-72
2023/09/05 06:32:44;;;;;;;;;;;;;;;15.25;89.85;102228.94;4877896;28;20158;-72
2023/09/05 06:35:09;;;;;;;4.93;4.35;;;;;;;15.33;89.15;102224.91;4894754;28;19925;-73
2023/09/05 06:37:38;;;;;;;;;;;;;;;15.44;88.92;102226.53;4922330;28;20047;-72
2023/09/05 06:40:06;;;;;;;6.50;4.57;;;;;;;15.55;88.90;102229.00;4969099;28;19915;-72
2023/09/05 06:42:32;;;;;;;6.50;5.30;;;;;;;15.69;88.90;102223.13;4903524;28;20517;-71
2023/09/05 06:44:57;;;;;;;6.03;4.93;;;;;;;15.78;88.13;102213.38;4902716;28;20094;-71
2023/09/05 06:47:23;;;;;;;;;;;;;;;15.83;87.30;102216.09;4903769;28;20037;-71
2023/09/05 06:49:48;;;;;;;6.90;4.47;;;;;;;15.89;87.66;102223.13;4905191;28;20378;-71
2023/09/05 06:52:16;;;;;;;;;;;;;;;15.96;87.45;102220.97;4904842;28;20082;-70
2023/09/05 06:54:42;;;;;;;8.77;5.28;;;;;;;16.02;87.19;102233.41;4907772;28;19915;-72
2023/09/05 06:57:11;;;;;;;;;;;;;;;16.05;87.99;102232.88;4886329;28;20036;-71
2023/09/05 06:59:36;;;;;;;6.20;4.50;;;;;;;16.16;86.74;102238.28;4916152;28;20438;-71
2023/09/05 07:02:02;;;;;;;;;;;;;;;16.28;86.32;102236.13;4901167;28;20126;-73
2023/09/05 07:04:31;;;;;;;7.65;5.65;;;;;;;16.34;86.57;102235.03;4884286;28;19926;-70
2023/09/05 07:06:58;;;;;;;5.55;4.55;;;;;;;16.45;86.79;102230.41;4887657;28;20052;-71
2023/09/05 07:09:25;;;;;;;5.95;5.13;;;;;;;16.56;86.91;102232.84;4885921;28;20095;-73
2023/09/05 07:11:51;;;;;;;7.07;4.88;;;;;;;16.64;86.01;102234.97;4898295;28;20040;-72
2023/09/05 07:14:16;;;;;;;;;;;;;;;16.76;85.72;102237.41;4888586;28;20073;-72
2023/09/05 07:16:42;;;;;;;6.40;5.00;;;;;;;16.85;84.04;102238.47;4923467;28;20044;-73
2023/09/05 07:19:08;;;;;;;5.25;4.72;;;;;;;16.96;83.69;102235.75;4904720;28;20496;-73
2023/09/05 07:21:37;;;;;;;7.00;4.90;;;;;;;17.03;82.54;102241.66;4902376;28;20036;-72
2023/09/05 07:24:03;;;;;;;5.30;4.78;;;;;;;17.11;82.75;102239.19;4910142;28;20036;-73
2023/09/05 07:26:28;;;;;;;;;;;;;;;17.18;82.54;102239.69;4905560;28;20083;-74
2023/09/05 07:28:54;;;;;;;5.90;4.80;;;;;;;17.28;81.72;102240.75;4878697;28;19940;-72
2023/09/05 07:31:20;;;;;;;;;;;;;;;17.33;81.66;102235.28;4897819;28;20129;-75
2023/09/05 07:33:45;;;;;;;5.95;5.00;;;;;;;17.44;81.99;102242.28;4890906;28;20384;-72
2023/09/05 07:36:10;;;;;;;;;;;;;;;17.57;81.61;102240.88;4901936;28;20044;-71
2023/09/05 07:38:36;;;;;;;5.25;4.38;;;;;;;17.65;80.69;102238.34;4892442;28;20375;-73
2023/09/05 07:41:05;;;;;;;;;;;;;;;17.74;79.98;102250.25;4893804;28;20072;-71
2023/09/05 07:43:34;;;;;;;6.20;5.00;;;;;;;17.86;80.36;102238.25;4905942;28;19919;-73
2023/09/05 07:46:01;;;;;;;6.13;4.20;;;;;;;17.94;80.74;102238.44;4904267;28;20140;-73
2023/09/05 07:48:26;;;;;;;6.15;5.35;;;;;;;18.08;80.66;102229.66;4877065;28;20145;-73
2023/09/05 07:50:58;;;;;;;;;;;;;;;18.22;79.29;102236.06;4910550;28;20516;-71
2023/09/05 07:53:25;;;;;;;6.65;5.45;;;;;;;18.33;79.18;102234.06;4882234;28;19920;-72
2023/09/05 07:55:51;;;;;;;;;;;;;;;18.39;79.02;102230.22;4912331;28;20031;-72
2023/09/05 07:58:17;;;;;;;6.20;4.57;;;;;;;18.45;79.25;102240.72;4983399;28;20156;-72
2023/09/05 08:00:43;;;;;;;6.05;4.65;;;;;;;18.51;78.96;102234.16;4904125;28;20043;-71
2023/09/05 08:03:08;;;;;;;;;;;;;;;18.59;79.32;102234.63;4911496;28;20025;-71
2023/09/05 08:05:34;;;;;;;5.75;4.75;;;;;;;18.68;77.61;102238.34;4914717;28;19919;-72
2023/09/05 08:07:59;;;;;;;5.85;4.95;;;;;;;18.73;77.42;102230.16;4889732;28;20078;-72
2023/09/05 08:10:25;;;;;;;8.07;5.28;;;;;;;18.84;77.81;102225.44;4889904;28;20040;-73
2023/09/05 08:12:51;;;;;;;6.68;4.20;;;;;;;18.98;77.99;102226.34;4907016;28;20114;-72
2023/09/05 08:15:17;;;;;;;6.05;4.40;;;;;;;19.11;76.73;102225.66;4920625;28;20155;-74
2023/09/05 08:17:43;;;;;;;6.82;4.55;;;;;;;19.22;75.79;102227.13;4901280;28;20147;-72
2023/09/05 08:20:12;;;;;;;5.88;4.13;;;;;;;19.29;75.98;102224.84;4906769;28;20499;-71
2023/09/05 08:22:38;;;;;;;6.78;5.60;;;;;;;19.35;74.94;102226.41;4879727;28;20034;-73
2023/09/05 08:25:04;;;;;;;7.30;4.68;;;;;;;19.44;75.59;102225.72;4918300;28;20048;-72
2023/09/05 08:27:30;;;;;;;5.50;4.13;;;;;;;19.52;75.59;102215.03;4903613;28;20107;-73
2023/09/05 08:29:57;;;;;;;5.85;4.00;;;;;;;19.60;75.41;102211.69;4890487;28;20565;-72
2023/09/05 08:32:23;;;;;;;6.50;4.22;;;;;;;19.70;74.23;102215.34;4874611;28;20043;-72
2023/09/05 08:34:49;;;;;;;6.55;4.60;;;;;;;19.79;74.20;102211.66;4903182;28;20543;-73
2023/09/05 08:37:15;;;;;;;7.03;3.95;;;;;;;19.86;73.76;102206.66;4862321;29;20047;-73
2023/09/05 08:39:41;;;;;;;5.50;3.55;;;;;;;19.99;73.71;102217.88;4930709;28;20044;-71
2023/09/05 08:42:07;;;;;;;6.70;3.97;;;;;;;20.08;73.17;102232.41;4973322;28;20114;-73
2023/09/05 08:44:41;;;;;;;5.93;4.57;;;;;;;20.20;73.03;102224.59;4890359;28;20041;-72
2023/09/05 08:47:07;;;;;;;4.05;2.92;;;;;;;20.30;72.66;102227.13;4909576;28;20035;-72
2023/09/05 08:49:33;;;;;;;7.30;3.70;;;;;;;20.40;72.82;102232.38;4902303;28;20331;-72
2023/09/05 08:52:03;;;;;;;6.38;4.03;;;;;;;20.51;72.52;102237.66;4890155;28;20110;-71
2023/09/05 08:54:30;;;;;;;6.15;4.10;;;;;;;20.59;71.42;102239.69;4903163;28;20055;-72
2023/09/05 08:57:00;;;;;;;4.57;3.83;;;;;;;20.68;70.37;102235.97;4987241;28;20043;-72
2023/09/05 08:59:26;;;;;;;4.75;3.40;;;;;;;20.70;69.85;102222.84;4902609;28;20794;-73
2023/09/05 09:01:52;;;;;;;4.45;3.90;;;;;;;20.74;70.65;102228.53;4912240;28;20186;-73
2023/09/05 09:04:20;;;;;;;4.22;3.67;;;;;;;20.82;71.82;102229.72;4887756;28;20516;-70
2023/09/05 09:06:53;;;;;;;5.15;4.00;;;;;;;20.90;71.07;102229.81;4919932;28;20035;-71
2023/09/05 09:09:39;;;;;;;4.32;3.70;;;;;;;21.01;70.80;102233.16;4902421;28;20698;-72
2023/09/05 09:12:06;;;;;;;4.32;3.22;;;;;;;21.08;70.89;102221.84;4905250;28;20470;-73
2023/09/05 09:14:32;;;;;;;4.55;3.58;;;;;;;21.20;70.70;102224.81;4910716;28;20127;-71
2023/09/05 09:17:04;;;;;;;4.47;3.15;;;;;;;21.37;71.29;102225.03;4938348;28;20048;-72
2023/09/05 09:19:30;;;;;;;7.25;3.35;;;;;;;21.40;70.45;102208.06;4905322;28;20045;-72
2023/09/05 09:22:01;;;;;;;4.85;3.90;;;;;;;21.51;69.43;102217.63;4900794;28;20039;-71
2023/09/05 09:24:39;;;;;;;4.78;3.53;;;;;;;21.55;68.93;102220.56;4902294;28;20149;-72
2023/09/05 09:27:05;;;;;;;;;;;;;;;21.61;68.47;102219.31;4969670;28;20040;-71
2023/09/05 09:29:33;;;;;;;5.25;3.53;;;;;;;21.70;69.03;102208.47;4906652;28;19962;-72
2023/09/05 09:32:06;;;;;;;3.85;3.15;;;;;;;21.84;69.21;102209.22;4906840;28;20066;-72
2023/09/05 09:34:35;;;;;;;6.60;3.88;;;;;;;21.94;68.18;102217.13;4870855;28;20068;-71
2023/09/05 09:37:01;;;;;;;6.03;3.70;;;;;;;21.97;68.39;102213.81;4904986;28;20035;-72
2023/09/05 09:39:30;;;;;;;4.53;3.30;;;;;;;22.03;68.56;102207.09;4878788;28;20394;-71
2023/09/05 09:42:00;;;;;;;5.20;3.10;;;;;;;22.10;68.72;102197.72;4904104;28;20508;-72
2023/09/05 09:44:37;;;;;;;4.00;2.85;;;;;;;22.19;68.29;102195.81;4906993;28;20176;-73
2023/09/05 09:47:03;;;;;;;3.88;3.13;;;;;;;22.30;69.28;102194.44;4888633;28;20043;-73
2023/09/05 09:49:30;;;;;;;4.35;3.33;;;;;;;22.38;68.66;102190.13;4897799;28;20520;-74
2023/09/05 09:52:02;;;;;;;5.55;2.90;;;;;;;22.55;65.98;102192.94;4890362;28;20051;-75
2023/09/05 09:54:34;;;;;;;4.82;3.20;;;;;;;22.65;66.26;102186.38;4887668;28;20151;-71
2023/09/05 09:57:04;;;;;;;4.10;2.92;;;;;;;22.72;66.22;102184.00;4910435;28;20039;-72
2023/09/05 09:59:38;;;;;;;3.40;2.85;;;;;;;22.86;65.56;102179.25;4889840;28;20493;-71
2023/09/05 10:02:11;;;;;;;4.68;2.83;;;;;;;23.01;65.34;102173.31;4913518;28;20858;-72
2023/09/05 10:04:37;;;;;;;5.05;2.85;;;;;;;23.10;65.48;102173.34;4974058;28;20078;-72
2023/09/05 10:07:06;;;;;;;4.25;3.38;;;;;;;23.19;65.17;102178.81;4871726;28;20043;-72
2023/09/05 10:09:40;;;;;;;7.88;3.20;;;;;;;23.33;65.67;102168.53;4912178;28;20040;-74
2023/09/05 10:12:07;;;;;;;3.85;2.65;;;;;;;23.45;64.55;102173.38;4926959;28;20111;-74
2023/09/05 10:14:35;;;;;;;4.07;2.83;;;;;;;23.52;65.05;102182.69;4888945;28;20047;-74
2023/09/05 10:17:02;;;;;;;4.05;3.25;;;;;;;23.61;64.42;102183.50;4908092;28;20081;-71
2023/09/05 10:19:30;;;;;;;6.28;3.83;;;;;;;23.72;64.74;102181.25;4881805;28;20506;-72
2023/09/05 10:21:58;;;;;;;6.93;3.85;;;;;;;23.82;62.72;102182.81;4891996;28;20036;-71
2023/09/05 10:24:25;;;;;;;7.20;4.40;;;;;;;23.84;62.82;102183.31;4909161;28;20122;-73
2023/09/05 10:26:51;;;;;;;6.82;4.20;;;;;;;23.96;63.97;102169.75;4915502;28;20040;-73
2023/09/05 10:29:34;;;;;;;5.88;4.88;;;;;;;24.02;61.52;102173.94;4914588;28;20036;-73
2023/09/05 10:32:01;;;;;;;7.00;4.13;;;;;;;24.10;60.93;102175.84;4904814;28;20051;-73
2023/09/05 10:34:50;;;;;;;6.65;3.95;;;;;;;24.21;61.77;102173.56;4916571;28;20034;-74
2023/09/05 10:37:22;;;;;;;5.18;3.90;;;;;;;24.26;60.57;102172.59;4904190;28;20499;-72
2023/09/05 10:39:57;;;;;;;8.27;3.75;;;;;;;24.34;61.27;102174.50;4880915;28;20497;-74
2023/09/05 10:42:28;;;;;;;5.00;3.03;;;;;;;24.46;60.58;102166.41;4880682;28;20052;-73
2023/09/05 10:44:55;;;;;;;5.43;3.22;;;;;;;24.49;59.38;102166.53;4906141;28;20090;-73
2023/09/05 10:47:27;;;;;;;4.28;3.00;;;;;;;24.56;59.30;102157.81;4946128;28;20476;-72
2023/09/05 10:49:57;;;;;;;;;;;;;;;24.64;59.01;102156.16;4898472;28;20131;-73
2023/09/05 10:52:22;;;;;;;;;;;;;;;24.81;59.83;102156.06;4887857;28;19936;-75
2023/09/05 10:54:48;;;;;;;3.67;2.80;;;;;;;24.90;59.16;102153.25;4905690;28;19923;-74
2023/09/05 10:57:37;;;;;;;2.80;2.42;;;;;;;24.98;58.43;102155.13;4900481;28;20126;-73
2023/09/05 11:00:13;;;;;;;4.18;2.63;;;;;;;25.09;58.98;102153.63;4884413;28;20040;-71
2023/09/05 11:02:40;;;;;;;4.25;2.83;;;;;;;25.05;58.04;102152.69;4907693;28;20067;-74
2023/09/05 11:05:19;;;;;;;3.45;2.42;;;;;;;25.15;57.54;102152.28;4909659;28;20572;-75
2023/09/05 11:07:50;;;;;;;4.05;3.20;;;;;;;25.22;58.31;102147.06;4911374;28;20040;-71
2023/09/05 11:10:24;;;;;;;3.03;2.72;;;;;;;25.34;57.84;102149.06;4888930;28;20032;-72
2023/09/05 11:12:50;;;;;;;3.15;2.70;;;;;;;25.39;57.13;102135.13;4900277;28;20072;-71
2023/09/05 11:15:32;;;;;;;5.18;2.63;;;;;;;25.42;56.57;102137.22;4968831;28;20131;-74
2023/09/05 11:18:05;;;;;;;4.78;2.83;;;;;;;25.55;56.88;102136.13;4904545;28;20512;-73
2023/09/05 11:20:41;;;;;;;3.63;2.67;;;;;;;25.56;55.47;102129.50;4900701;28;20101;-72
2023/09/05 11:23:11;;;;;;;3.63;2.80;;;;;;;25.72;57.01;102121.44;4893364;28;20036;-71
2023/09/05 11:25:53;;;;;;;4.13;2.97;;;;;;;25.80;56.12;102125.22;4885473;28;20102;-72
2023/09/05 11:28:22;;;;;;;3.72;2.72;;;;;;;25.89;56.77;102122.41;4970001;28;20043;-71
2023/09/05 11:30:57;;;;;;;4.72;3.03;;;;;;;26.04;56.89;102113.50;4903424;28;20179;-71
2023/09/05 11:33:25;;;;;;;4.60;2.30;;;;;;;26.15;55.44;102114.66;4927201;28;20040;-73
2023/09/05 11:35:51;;;;;;;4.30;2.55;;;;;;;26.24;56.20;102109.06;4898600;28;20421;-72
2023/09/05 11:38:18;;;;;;;4.03;2.67;;;;;;;26.27;55.30;102114.66;4901446;28;20565;-74
2023/09/05 11:40:55;;;;;;;2.90;2.60;;;;;;;26.36;54.66;102101.63;4904929;28;20152;-73
2023/09/05 11:43:24;;;;;;;4.50;2.03;;;;;;;26.37;55.38;102100.47;4914388;28;20411;-71
2023/09/05 11:45:57;;;;;;;2.50;2.20;;;;;;;26.47;54.19;102104.72;4901497;28;20857;-71